Apollo Beach, Florida
Current Conditions -  °F | °C
As of 7:58 AM on Saturday 25 Oct 2014 (Local Time) from KMCF Reporting Station
Clear Clear  
Wind Chill: 14°   Ceiling: Unl
Heat Index: 14°   Visibility: 10mi
Dew Point: 13°   Wind: 6mph
Humidity: 95%   Direction: 40°NE
Pressure: 30"   Gusts: NA
Location:  27.77°N, 82.39°W
Report Text: KMCF 251158Z AUTO 04005KT 10SM CLR 14/13 A3000 RMK AO2 SLP162 T01380130 10156 20131 52009
Loading
Personal Weather Stations






























Interactive Weather Map
Tropical Storm Tracking
New forecast layout! Learn more

10-Day Weather Forecast

Advertisements
Track Severe Weather on mobile